Time;durP1;ratioP1;P1;durP2;ratioP2;P2;SDS_P1;SDS_P2;PMS_P1;PMS_P2;Temp;Humidity;BMP_temperature;BMP_pressure;BME280_temperature;BME280_humidity;BME280_pressure;Samples;Min_cycle;Max_cycle;Signal;HPM_P1;HPM_P2
2021/07/08 00:01:09;;;;;;;5.30;1.13;;;19.60;99.90;;;;;;5052868;28;20039;-69
2021/07/08 00:03:34;;;;;;;3.58;1.35;;;19.50;99.90;;;;;;5034114;28;20067;-69
2021/07/08 00:06:01;;;;;;;2.25;1.20;;;19.40;99.90;;;;;;5032913;28;20056;-70
2021/07/08 00:08:27;;;;;;;1.90;1.10;;;19.20;99.90;;;;;;5032026;28;20033;-70
2021/07/08 00:10:55;;;;;;;1.88;1.02;;;19.30;99.90;;;;;;5032779;28;20034;-69
2021/07/08 00:13:27;;;;;;;1.67;1.02;;;19.40;99.90;;;;;;5032812;28;20083;-69
2021/07/08 00:15:54;;;;;;;2.17;1.05;;;19.50;99.90;;;;;;5033062;28;20393;-69
2021/07/08 00:18:23;;;;;;;2.17;1.08;;;19.40;99.90;;;;;;5031658;28;20102;-69
2021/07/08 00:20:49;;;;;;;2.45;1.13;;;19.40;99.90;;;;;;5032911;28;20032;-69
2021/07/08 00:23:17;;;;;;;3.10;1.20;;;19.50;99.90;;;;;;5031626;28;20037;-69
2021/07/08 00:25:44;;;;;;;2.80;1.30;;;19.50;99.90;;;;;;5031529;28;20104;-69
2021/07/08 00:28:14;;;;;;;3.10;1.50;;;19.50;99.90;;;;;;5032646;28;20034;-69
2021/07/08 00:30:45;;;;;;;2.50;1.13;;;19.60;99.90;;;;;;5031815;28;20123;-70
2021/07/08 00:33:11;;;;;;;3.42;1.55;;;19.60;99.90;;;;;;5031573;28;20064;-69
2021/07/08 00:35:39;;;;;;;2.55;1.48;;;19.60;99.90;;;;;;5032533;28;20087;-69
2021/07/08 00:38:05;;;;;;;2.95;1.40;;;19.50;99.90;;;;;;5032264;28;20034;-70
2021/07/08 00:40:32;;;;;;;6.03;2.40;;;19.50;99.90;;;;;;5032415;28;20048;-69
2021/07/08 00:42:59;;;;;;;3.72;1.52;;;19.40;99.90;;;;;;5032242;28;20095;-70
2021/07/08 00:45:26;;;;;;;2.13;1.20;;;19.50;99.90;;;;;;5032926;28;20037;-70
2021/07/08 00:47:53;;;;;;;2.35;1.23;;;19.50;99.90;;;;;;5032189;28;20037;-68
2021/07/08 00:50:34;;;;;;;2.55;1.55;;;19.60;99.90;;;;;;5031425;28;20049;-69
2021/07/08 00:53:01;;;;;;;4.35;1.33;;;19.40;99.90;;;;;;5031083;28;20610;-70
2021/07/08 00:55:27;;;;;;;2.60;1.40;;;19.20;99.90;;;;;;5014713;28;20486;-70
2021/07/08 00:57:53;;;;;;;3.88;1.42;;;18.90;99.90;;;;;;5032223;28;20091;-70
2021/07/08 01:00:38;;;;;;;3.53;1.50;;;18.70;99.90;;;;;;5032431;28;20492;-69
2021/07/08 01:03:08;;;;;;;4.00;1.50;;;18.60;99.90;;;;;;5031597;28;20043;-69
2021/07/08 01:05:38;;;;;;;2.20;1.37;;;18.70;99.90;;;;;;5031541;28;20068;-69
2021/07/08 01:08:06;;;;;;;3.72;1.30;;;18.80;99.90;;;;;;5030395;28;20307;-71
2021/07/08 01:10:32;;;;;;;2.03;1.20;;;18.90;99.90;;;;;;5030923;28;20030;-69
2021/07/08 01:12:59;;;;;;;4.32;1.88;;;19.00;99.90;;;;;;5032119;28;20403;-68
2021/07/08 01:15:25;;;;;;;3.78;1.55;;;19.00;99.90;;;;;;5032110;28;20034;-70
2021/07/08 01:17:51;;;;;;;3.92;1.60;;;19.10;99.90;;;;;;5030727;28;20095;-70
2021/07/08 01:20:21;;;;;;;3.83;1.40;;;18.90;99.90;;;;;;5031767;28;20037;-70
2021/07/08 01:22:57;;;;;;;6.03;1.58;;;18.80;99.90;;;;;;5031748;28;20402;-69
2021/07/08 01:25:26;;;;;;;3.25;1.30;;;18.70;99.90;;;;;;5030903;28;20037;-68
2021/07/08 01:27:53;;;;;;;2.92;1.30;;;18.70;99.90;;;;;;5031684;28;20037;-69
2021/07/08 01:30:19;;;;;;;2.45;1.23;;;18.80;99.90;;;;;;5031999;28;20084;-70
2021/07/08 01:32:45;;;;;;;2.33;1.23;;;18.90;99.90;;;;;;5031002;28;20050;-70
2021/07/08 01:35:13;;;;;;;6.75;1.50;;;18.90;99.90;;;;;;5032275;28;20064;-69
2021/07/08 01:37:39;;;;;;;2.83;1.45;;;18.60;99.90;;;;;;5031645;28;20087;-69
2021/07/08 01:40:14;;;;;;;3.03;1.17;;;18.50;99.90;;;;;;5031930;28;20034;-70
2021/07/08 01:42:40;;;;;;;3.35;1.38;;;18.50;99.90;;;;;;5030277;28;20061;-70
2021/07/08 01:45:08;;;;;;;2.95;1.23;;;18.70;99.90;;;;;;5031651;28;20033;-69
2021/07/08 01:47:34;;;;;;;2.45;1.15;;;18.70;99.90;;;;;;5030378;28;20057;-69
2021/07/08 01:50:00;;;;;;;2.65;1.20;;;18.80;99.90;;;;;;5031749;28;20033;-69
2021/07/08 01:52:26;;;;;;;2.25;1.20;;;18.90;99.90;;;;;;5030715;28;20171;-70
2021/07/08 01:54:52;;;;;;;5.28;1.35;;;19.00;99.90;;;;;;5031432;28;20037;-70
2021/07/08 01:57:18;;;;;;;3.38;1.80;;;19.00;99.90;;;;;;5030393;28;20037;-69
2021/07/08 01:59:44;;;;;;;2.60;1.17;;;19.00;99.90;;;;;;5030696;28;20463;-70
2021/07/08 02:02:09;;;;;;;2.30;1.20;;;19.10;99.90;;;;;;5031484;28;20107;-69
2021/07/08 02:04:35;;;;;;;2.92;1.65;;;18.90;99.90;;;;;;5031819;28;20117;-69
2021/07/08 02:07:01;;;;;;;3.42;1.45;;;18.70;99.90;;;;;;5032488;28;20100;-69
2021/07/08 02:09:30;;;;;;;2.13;1.30;;;18.70;99.90;;;;;;5031545;28;20033;-69
2021/07/08 02:11:56;;;;;;;3.88;1.50;;;18.60;99.90;;;;;;5031538;28;20646;-69
2021/07/08 02:14:22;;;;;;;2.67;1.25;;;18.70;99.90;;;;;;5031462;28;20044;-69
2021/07/08 02:16:47;;;;;;;3.35;1.58;;;18.90;99.90;;;;;;5031399;28;20045;-70
2021/07/08 02:19:14;;;;;;;3.00;1.42;;;18.90;99.90;;;;;;5030416;28;20642;-70
2021/07/08 02:21:39;;;;;;;2.38;1.08;;;18.90;99.90;;;;;;5031365;28;20029;-69
2021/07/08 02:24:05;;;;;;;5.85;1.27;;;18.90;99.90;;;;;;5030047;28;20048;-70
2021/07/08 02:26:31;;;;;;;4.50;1.30;;;18.90;99.90;;;;;;5031511;28;20034;-70
2021/07/08 02:28:56;;;;;;;3.42;1.30;;;18.90;99.90;;;;;;5031096;28;20071;-69
2021/07/08 02:31:22;;;;;;;2.47;1.13;;;18.90;99.90;;;;;;5032811;28;20025;-70
2021/07/08 02:33:48;;;;;;;2.33;1.25;;;18.90;99.90;;;;;;5034875;28;20040;-69
2021/07/08 02:36:14;;;;;;;3.80;1.25;;;18.90;99.90;;;;;;5035067;28;20064;-70
2021/07/08 02:38:39;;;;;;;1.67;1.13;;;18.90;99.90;;;;;;5035055;28;20044;-69
2021/07/08 02:41:07;;;;;;;3.22;1.15;;;18.90;99.90;;;;;;5033432;28;20116;-70
2021/07/08 02:43:34;;;;;;;1.83;1.20;;;19.00;99.90;;;;;;5033392;28;20087;-69
2021/07/08 02:46:00;;;;;;;2.88;1.20;;;18.90;99.90;;;;;;5034705;28;20690;-69
2021/07/08 02:48:26;;;;;;;2.97;1.30;;;18.90;99.90;;;;;;5033350;28;20176;-69
2021/07/08 02:50:55;;;;;;;2.25;1.17;;;19.00;99.90;;;;;;5034798;28;20025;-69
2021/07/08 02:53:21;;;;;;;2.15;1.45;;;19.00;99.90;;;;;;5034528;28;20034;-70
2021/07/08 02:55:49;;;;;;;4.28;1.50;;;19.00;99.90;;;;;;5034578;28;20471;-69
2021/07/08 02:58:16;;;;;;;2.22;1.20;;;18.90;99.90;;;;;;5034506;28;20044;-70
2021/07/08 03:00:42;;;;;;;4.60;1.60;;;18.90;99.90;;;;;;5034389;28;20124;-69
2021/07/08 03:03:08;;;;;;;3.25;1.45;;;18.80;99.90;;;;;;5033292;28;20426;-70
2021/07/08 03:05:34;;;;;;;2.78;1.38;;;18.80;99.90;;;;;;5034607;28;20040;-69
2021/07/08 03:08:00;;;;;;;3.70;1.73;;;18.80;99.90;;;;;;5033834;28;20081;-69
2021/07/08 03:10:28;;;;;;;2.58;1.52;;;18.80;99.90;;;;;;5034451;28;20115;-68
2021/07/08 03:12:54;;;;;;;2.90;1.67;;;18.90;99.90;;;;;;5033950;28;20148;-69
2021/07/08 03:15:21;;;;;;;7.68;1.95;;;18.90;99.90;;;;;;5034621;28;20044;-69
2021/07/08 03:17:48;;;;;;;3.58;1.60;;;18.60;99.90;;;;;;5034053;28;20529;-69
2021/07/08 03:20:22;;;;;;;4.38;1.73;;;18.60;99.90;;;;;;5032813;28;20033;-70
2021/07/08 03:22:50;;;;;;;3.72;1.67;;;18.60;99.90;;;;;;5033004;28;20036;-69
2021/07/08 03:25:19;;;;;;;2.85;1.55;;;18.60;99.90;;;;;;5033925;28;20099;-69
2021/07/08 03:27:45;;;;;;;4.28;1.50;;;18.70;99.90;;;;;;5033727;28;20022;-69
2021/07/08 03:30:15;;;;;;;3.95;1.65;;;18.80;99.90;;;;;;5033580;28;20048;-69
2021/07/08 03:32:42;;;;;;;3.30;1.63;;;18.80;99.90;;;;;;5032968;28;20355;-68
2021/07/08 03:35:09;;;;;;;3.25;1.80;;;18.60;99.90;;;;;;5015997;28;20487;-70
2021/07/08 03:37:35;;;;;;;3.75;1.50;;;18.50;99.90;;;;;;5033796;28;20528;-70
2021/07/08 03:40:04;;;;;;;3.28;1.75;;;18.60;99.90;;;;;;5033809;28;20044;-69
2021/07/08 03:42:29;;;;;;;2.55;1.55;;;18.60;99.90;;;;;;5033240;28;20029;-69
2021/07/08 03:44:55;;;;;;;3.80;1.63;;;18.70;99.90;;;;;;5033266;28;20029;-67
2021/07/08 03:47:21;;;;;;;3.10;1.88;;;18.80;99.90;;;;;;5033463;28;20037;-68
2021/07/08 03:49:47;;;;;;;3.63;1.52;;;18.80;99.90;;;;;;5034560;28;20033;-67
2021/07/08 03:52:12;;;;;;;5.18;1.67;;;18.80;99.90;;;;;;5052218;28;20473;-70
2021/07/08 03:54:38;;;;;;;7.30;2.10;;;18.70;99.90;;;;;;5053557;28;20108;-67
2021/07/08 03:57:05;;;;;;;3.35;2.13;;;18.60;99.90;;;;;;5051819;28;20036;-66
2021/07/08 03:59:31;;;;;;;4.85;2.65;;;18.50;99.90;;;;;;5038519;28;20131;-68
2021/07/08 04:01:56;;;;;;;4.65;1.95;;;18.50;99.90;;;;;;5051758;28;20033;-68
2021/07/08 04:04:22;;;;;;;5.18;2.53;;;18.60;99.90;;;;;;5051793;28;20116;-67
2021/07/08 04:06:48;;;;;;;5.82;2.00;;;18.50;99.90;;;;;;5051657;28;20051;-68
2021/07/08 04:09:14;;;;;;;3.95;2.15;;;18.50;99.90;;;;;;5052759;28;20061;-68
2021/07/08 04:11:40;;;;;;;4.90;1.95;;;18.70;99.90;;;;;;5051800;28;20038;-68
2021/07/08 04:14:06;;;;;;;6.07;2.35;;;18.80;99.90;;;;;;5051602;28;20033;-68
2021/07/08 04:16:32;;;;;;;3.72;2.17;;;18.80;99.90;;;;;;5049623;28;20067;-67
2021/07/08 04:18:57;;;;;;;3.30;2.00;;;18.80;99.90;;;;;;5051703;28;20102;-67
2021/07/08 04:21:23;;;;;;;5.93;2.00;;;18.80;99.90;;;;;;5038279;28;20111;-68
2021/07/08 04:23:49;;;;;;;5.00;2.25;;;18.70;99.90;;;;;;5032905;28;20026;-68
2021/07/08 04:26:18;;;;;;;4.38;2.65;;;18.60;99.90;;;;;;5031398;28;20415;-69
2021/07/08 04:28:45;;;;;;;9.35;2.58;;;18.60;99.90;;;;;;4994969;28;20057;-68
2021/07/08 04:31:15;;;;;;;7.35;2.33;;;18.60;99.90;;;;;;5032588;28;20121;-67
2021/07/08 04:33:41;;;;;;;5.63;2.00;;;18.60;99.90;;;;;;5031950;28;20052;-67
2021/07/08 04:36:07;;;;;;;3.83;1.70;;;18.60;99.90;;;;;;5032659;28;20296;-68
2021/07/08 04:38:32;;;;;;;8.35;2.50;;;18.60;99.90;;;;;;5032940;28;20382;-62
2021/07/08 04:40:58;;;;;;;4.85;2.65;;;18.40;99.90;;;;;;5032653;28;20036;-63
2021/07/08 04:43:24;;;;;;;4.18;2.58;;;18.30;99.90;;;;;;5032787;28;20473;-62
2021/07/08 04:45:51;;;;;;;5.88;2.03;;;18.40;99.90;;;;;;5032684;28;20057;-63
2021/07/08 04:48:17;;;;;;;8.73;3.35;;;18.60;99.90;;;;;;5032445;28;20045;-64
2021/07/08 04:50:43;;;;;;;8.23;2.42;;;18.50;99.90;;;;;;5040454;28;20401;-63
2021/07/08 04:53:13;;;;;;;5.53;2.25;;;18.50;99.90;;;;;;5052322;28;20036;-63
2021/07/08 04:55:39;;;;;;;4.50;1.90;;;18.70;99.90;;;;;;5051197;28;20032;-63
2021/07/08 04:58:05;;;;;;;6.90;2.75;;;18.80;99.90;;;;;;5052261;28;20036;-63
2021/07/08 05:00:31;;;;;;;5.38;2.40;;;18.70;99.90;;;;;;5052477;28;20119;-64
2021/07/08 05:02:56;;;;;;;5.70;2.30;;;18.70;99.90;;;;;;5052524;28;20052;-64
2021/07/08 05:05:23;;;;;;;7.13;2.20;;;18.80;99.90;;;;;;5052264;28;20121;-63
2021/07/08 05:07:50;;;;;;;7.72;2.20;;;18.80;99.90;;;;;;5051783;28;20056;-62
2021/07/08 05:10:17;;;;;;;8.27;2.50;;;18.80;99.90;;;;;;5051001;28;20091;-63
2021/07/08 05:12:46;;;;;;;3.95;2.25;;;19.20;99.90;;;;;;5052177;28;20028;-63
2021/07/08 05:15:15;;;;;;;7.95;2.35;;;19.50;99.90;;;;;;5051243;28;20029;-63
2021/07/08 05:17:41;;;;;;;8.88;2.22;;;19.70;99.90;;;;;;5052003;28;20033;-63
2021/07/08 05:20:08;;;;;;;5.10;2.33;;;19.70;99.90;;;;;;5047334;28;20048;-62
2021/07/08 05:22:37;;;;;;;5.18;2.25;;;19.60;99.90;;;;;;5032220;28;20064;-63
2021/07/08 05:25:05;;;;;;;7.57;2.67;;;19.60;99.90;;;;;;5027964;28;20033;-63
2021/07/08 05:27:32;;;;;;;9.10;3.58;;;19.60;99.90;;;;;;5031966;28;20036;-63
2021/07/08 05:29:59;;;;;;;7.07;3.17;;;19.60;99.90;;;;;;5031778;28;20033;-63
2021/07/08 05:32:25;;;;;;;7.03;2.53;;;19.80;99.90;;;;;;5030609;28;20033;-63
2021/07/08 05:34:51;;;;;;;5.57;2.67;;;19.50;99.90;;;;;;5032187;28;20120;-62
2021/07/08 05:37:16;;;;;;;8.55;3.22;;;19.50;99.90;;;;;;5030796;28;20077;-62
2021/07/08 05:39:42;;;;;;;7.95;2.70;;;19.70;99.90;;;;;;5031693;28;20588;-62
2021/07/08 05:42:08;;;;;;;7.10;2.60;;;19.90;99.90;;;;;;5031860;28;20033;-62
2021/07/08 05:44:34;;;;;;;6.95;2.42;;;20.10;99.90;;;;;;5031950;28;20099;-62
2021/07/08 05:46:59;;;;;;;6.63;2.75;;;20.30;99.90;;;;;;5031016;28;20025;-63
2021/07/08 05:49:25;;;;;;;12.23;2.70;;;20.30;99.90;;;;;;5031896;28;20172;-70
2021/07/08 05:51:51;;;;;;;6.40;2.75;;;20.30;99.90;;;;;;5065084;28;20036;-71
2021/07/08 05:54:17;;;;;;;10.40;3.05;;;20.30;99.90;;;;;;5050119;28;20032;-69
2021/07/08 05:56:43;;;;;;;4.38;2.42;;;20.00;99.90;;;;;;5050023;28;20462;-70
2021/07/08 05:59:08;;;;;;;9.05;2.95;;;20.00;99.90;;;;;;5066704;28;20121;-70
2021/07/08 06:01:34;;;;;;;10.82;3.25;;;19.90;99.90;;;;;;5050077;28;20111;-71
2021/07/08 06:04:00;;;;;;;6.82;3.03;;;19.60;99.90;;;;;;5051578;28;20039;-71
2021/07/08 06:06:26;;;;;;;6.88;3.35;;;19.80;99.90;;;;;;5052967;28;20075;-70
2021/07/08 06:08:51;;;;;;;6.43;2.60;;;19.80;99.90;;;;;;5055285;28;20123;-70
2021/07/08 06:11:17;;;;;;;8.27;2.72;;;19.80;99.90;;;;;;5054117;28;20385;-70
2021/07/08 06:13:43;;;;;;;7.72;2.53;;;19.80;99.90;;;;;;5043968;28;20060;-70
2021/07/08 06:16:09;;;;;;;7.03;2.33;;;19.80;99.90;;;;;;5036587;28;20029;-70
2021/07/08 06:18:36;;;;;;;10.30;2.78;;;19.60;99.90;;;;;;5034210;28;20037;-69
2021/07/08 06:21:04;;;;;;;8.68;2.60;;;19.60;99.90;;;;;;5034284;28;20053;-69
2021/07/08 06:23:31;;;;;;;11.65;4.00;;;19.70;99.90;;;;;;5033456;28;20030;-69
2021/07/08 06:25:57;;;;;;;6.75;2.70;;;19.60;99.90;;;;;;5034716;28;20029;-69
2021/07/08 06:28:24;;;;;;;6.65;2.63;;;19.80;99.90;;;;;;5033633;28;20144;-69
2021/07/08 06:30:49;;;;;;;9.52;2.40;;;19.90;99.90;;;;;;5034801;28;20033;-70
2021/07/08 06:33:15;;;;;;;4.78;2.00;;;19.70;99.90;;;;;;5035065;28;20112;-70
2021/07/08 06:35:42;;;;;;;9.15;2.40;;;20.00;99.90;;;;;;5017400;28;20084;-70
2021/07/08 06:38:08;;;;;;;8.00;2.00;;;20.20;99.90;;;;;;5033666;28;20033;-69
2021/07/08 06:40:34;;;;;;;8.02;2.72;;;20.20;99.90;;;;;;5034830;28;20034;-70
2021/07/08 06:43:00;;;;;;;8.55;2.55;;;20.10;99.90;;;;;;5033528;28;20048;-70
2021/07/08 06:45:27;;;;;;;6.32;2.13;;;20.00;99.90;;;;;;5034693;28;20025;-70
2021/07/08 06:48:03;;;;;;;8.45;3.25;;;20.20;99.90;;;;;;5033551;28;20095;-70
2021/07/08 06:50:31;;;;;;;11.10;3.28;;;20.40;99.90;;;;;;5034491;28;20033;-70
2021/07/08 06:52:59;;;;;;;7.88;3.00;;;20.40;99.90;;;;;;5033318;28;20033;-70
2021/07/08 06:55:25;;;;;;;15.25;3.47;;;20.70;99.90;;;;;;5034295;28;20120;-69
2021/07/08 06:57:50;;;;;;;5.90;2.30;;;20.30;99.90;;;;;;5034392;28;20069;-69
2021/07/08 07:00:27;;;;;;;6.70;2.40;;;20.10;99.90;;;;;;5034257;28;20474;-69
2021/07/08 07:02:55;;;;;;;9.75;2.60;;;20.00;99.90;;;;;;5034435;28;20416;-69
2021/07/08 07:05:22;;;;;;;9.98;3.10;;;20.00;99.90;;;;;;5034437;28;20112;-70
2021/07/08 07:07:49;;;;;;;6.85;3.17;;;19.90;99.90;;;;;;5034051;28;20063;-69
2021/07/08 07:10:15;;;;;;;20.80;5.30;;;20.20;99.90;;;;;;5032925;28;20538;-70
2021/07/08 07:12:47;;;;;;;4.78;2.20;;;20.30;99.90;;;;;;5034090;28;20390;-69
2021/07/08 07:15:16;;;;;;;5.72;2.03;;;20.50;99.90;;;;;;5033071;28;20041;-69
2021/07/08 07:17:43;;;;;;;9.00;2.85;;;20.50;99.90;;;;;;5033365;28;20033;-69
2021/07/08 07:20:11;;;;;;;4.68;2.17;;;20.50;99.90;;;;;;5034274;28;20026;-72
2021/07/08 07:22:37;;;;;;;5.85;2.28;;;20.20;99.90;;;;;;5033067;28;20041;-64
2021/07/08 07:25:05;;;;;;;11.10;2.53;;;19.90;99.90;;;;;;5034298;28;20029;-66
2021/07/08 07:27:32;;;;;;;5.22;2.40;;;20.10;99.90;;;;;;5034231;28;20076;-66
2021/07/08 07:30:02;;;;;;;8.25;2.50;;;20.20;99.90;;;;;;5032645;28;20406;-66
2021/07/08 07:32:30;;;;;;;8.05;2.53;;;20.20;99.90;;;;;;5034015;28;20040;-67
2021/07/08 07:34:56;;;;;;;13.70;5.53;;;20.30;99.90;;;;;;5033011;28;20046;-66
2021/07/08 07:37:23;;;;;;;12.00;3.58;;;20.40;99.90;;;;;;5033794;28;20033;-65
2021/07/08 07:39:48;;;;;;;9.98;3.42;;;20.60;99.90;;;;;;5024952;28;20025;-65
2021/07/08 07:42:18;;;;;;;5.97;2.60;;;20.70;99.90;;;;;;5033725;28;20037;-66
2021/07/08 07:44:47;;;;;;;7.35;2.72;;;20.80;99.90;;;;;;5032651;28;20032;-68
2021/07/08 07:47:13;;;;;;;6.65;2.63;;;20.90;99.90;;;;;;5030370;28;20045;-65
2021/07/08 07:49:41;;;;;;;6.88;2.38;;;20.90;99.90;;;;;;5023683;28;20037;-65
2021/07/08 07:52:07;;;;;;;5.13;2.40;;;20.50;99.90;;;;;;5023875;28;20038;-65
2021/07/08 07:54:34;;;;;;;3.88;2.22;;;20.50;99.90;;;;;;5020583;28;20175;-66
2021/07/08 07:57:03;;;;;;;6.10;2.28;;;20.70;99.90;;;;;;5022822;28;20045;-66
2021/07/08 07:59:29;;;;;;;5.40;1.80;;;20.90;99.90;;;;;;5023482;28;20037;-66
2021/07/08 08:01:55;;;;;;;3.03;1.55;;;21.10;99.90;;;;;;5023773;28;20179;-66
2021/07/08 08:04:20;;;;;;;4.75;1.92;;;21.40;99.90;;;;;;5021084;28;20037;-66
2021/07/08 08:09:44;;;;;;;7.43;2.20;;;21.80;99.90;;;;;;5001199;28;20045;-66
2021/07/08 08:12:10;;;;;;;5.95;2.65;;;22.00;99.90;;;;;;5013259;28;20033;-65
2021/07/08 08:14:36;;;;;;;5.93;2.00;;;22.20;99.90;;;;;;5013302;28;20064;-64
2021/07/08 08:17:03;;;;;;;9.15;3.85;;;22.30;99.90;;;;;;5013174;28;20042;-64
2021/07/08 08:19:29;;;;;;;4.35;2.08;;;22.40;99.90;;;;;;5013030;28;20112;-65
2021/07/08 08:21:54;;;;;;;4.10;1.90;;;22.60;99.90;;;;;;5013042;28;20105;-65
2021/07/08 08:24:20;;;;;;;4.68;2.25;;;22.70;99.90;;;;;;5026642;28;20037;-65
2021/07/08 08:26:51;;;;;;;5.75;2.13;;;22.40;99.90;;;;;;5032863;28;20476;-63
2021/07/08 08:29:17;;;;;;;;;;;21.80;99.90;;;;;;5032237;28;20124;-67
2021/07/08 08:31:42;;;;;;;6.25;2.38;;;21.50;99.90;;;;;;5032864;28;19913;-66
2021/07/08 08:34:08;;;;;;;6.57;2.33;;;21.50;99.90;;;;;;5018762;28;20096;-65
2021/07/08 08:36:34;;;;;;;17.33;3.95;;;21.80;99.90;;;;;;5012798;28;20026;-64
2021/07/08 08:39:00;;;;;;;19.75;2.95;;;21.60;99.90;;;;;;5030172;28;20037;-66
2021/07/08 08:41:25;;;;;;;4.75;1.95;;;21.90;99.90;;;;;;5032090;28;20049;-65
2021/07/08 08:43:51;;;;;;;7.68;2.05;;;22.30;99.90;;;;;;5032454;28;20041;-65
2021/07/08 08:46:18;;;;;;;13.75;2.58;;;22.50;99.90;;;;;;5032274;28;20057;-64
2021/07/08 08:48:43;;;;;;;3.08;1.90;;;22.80;99.90;;;;;;5013672;28;20034;-65
2021/07/08 08:51:09;;;;;;;3.65;1.50;;;22.60;99.90;;;;;;5012677;28;20048;-67
2021/07/08 08:53:35;;;;;;;3.00;1.77;;;22.90;99.90;;;;;;5012606;28;20041;-65
2021/07/08 08:56:01;;;;;;;4.72;2.30;;;22.80;99.90;;;;;;5012371;28;20052;-67
2021/07/08 08:58:27;;;;;;;6.50;2.00;;;22.80;99.90;;;;;;5012334;28;20034;-65
2021/07/08 09:00:55;;;;;;;9.73;2.00;;;22.70;99.90;;;;;;5012799;28;20084;-67
2021/07/08 09:03:26;;;;;;;11.35;1.95;;;22.80;99.90;;;;;;5012634;28;20398;-67
2021/07/08 09:06:07;;;;;;;5.85;1.85;;;23.10;99.90;;;;;;5012876;28;20475;-67
2021/07/08 09:08:36;;;;;;;6.63;2.75;;;23.20;99.90;;;;;;5040531;28;20044;-67
2021/07/08 09:11:02;;;;;;;9.27;5.03;;;22.80;99.90;;;;;;5051188;28;20040;-66
2021/07/08 09:13:44;;;;;;;6.82;2.05;;;22.70;99.90;;;;;;5052019;28;20025;-67
2021/07/08 09:16:21;;;;;;;2.65;1.95;;;22.70;99.90;;;;;;5051062;28;20044;-67
2021/07/08 09:19:02;;;;;;;5.05;1.80;;;22.80;99.90;;;;;;5052326;28;20037;-67
2021/07/08 09:21:30;;;;;;;5.03;1.60;;;23.00;99.90;;;;;;5052078;28;20037;-68
2021/07/08 09:24:23;;;;;;;3.92;1.80;;;23.10;99.90;;;;;;5050846;28;20592;-67
2021/07/08 09:27:12;;;;;;;3.17;1.42;;;23.20;99.90;;;;;;5050736;28;20052;-67
2021/07/08 09:29:44;;;;;;;2.60;1.23;;;23.20;99.90;;;;;;5051853;28;20025;-67
2021/07/08 09:32:15;;;;;;;4.10;1.50;;;23.20;99.90;;;;;;5052050;28;20110;-67
2021/07/08 09:34:57;;;;;;;3.90;1.20;;;23.20;99.90;;;;;;5052101;28;20028;-67
2021/07/08 09:37:32;;;;;;;2.25;1.20;;;23.20;99.90;;;;;;5046379;28;20029;-67
2021/07/08 09:40:05;;;;;;;4.97;1.55;;;23.00;99.90;;;;;;5032764;28;20034;-67
2021/07/08 09:42:46;;;;;;;6.32;1.70;;;23.10;99.90;;;;;;5035910;28;20033;-67
2021/07/08 09:45:14;;;;;;;;;;;23.10;99.90;;;;;;5034907;28;20084;-67
2021/07/08 09:47:41;;;;;;;3.95;1.60;;;23.10;99.90;;;;;;5034468;28;20007;-68
2021/07/08 09:50:10;;;;;;;4.47;1.92;;;23.20;99.90;;;;;;5034318;28;20038;-67
2021/07/08 09:52:38;;;;;;;3.95;1.90;;;23.20;99.90;;;;;;5035673;28;20109;-67
2021/07/08 09:55:19;;;;;;;3.35;1.58;;;23.30;99.90;;;;;;5035813;28;20095;-67
2021/07/08 09:57:48;;;;;;;5.38;2.00;;;23.40;99.90;;;;;;5035708;28;20044;-68
2021/07/08 10:00:19;;;;;;;3.25;1.60;;;23.30;99.90;;;;;;5035575;28;20033;-67
2021/07/08 10:02:47;;;;;;;5.97;2.20;;;23.40;99.90;;;;;;5035545;28;20231;-67
2021/07/08 10:05:13;;;;;;;8.35;2.30;;;23.50;99.90;;;;;;5034142;28;20040;-67
2021/07/08 10:07:39;;;;;;;4.47;1.85;;;23.40;99.90;;;;;;5042475;28;20132;-67
2021/07/08 10:10:06;;;;;;;4.75;2.45;;;23.30;99.90;;;;;;5054377;28;20495;-69
2021/07/08 10:12:33;;;;;;;10.40;2.40;;;23.30;99.90;;;;;;5037269;28;20059;-69
2021/07/08 10:15:01;;;;;;;6.00;3.17;;;23.30;99.90;;;;;;5055248;28;20075;-69
2021/07/08 10:17:34;;;;;;;6.00;2.60;;;23.10;99.90;;;;;;5053898;28;20041;-67
2021/07/08 10:20:06;;;;;;;12.32;3.10;;;22.80;99.90;;;;;;5054995;28;20432;-67
2021/07/08 10:22:34;;;;;;;7.75;3.35;;;22.80;99.90;;;;;;5055061;28;20103;-65
2021/07/08 10:25:00;;;;;;;7.20;3.28;;;22.90;99.90;;;;;;5055286;28;20116;-65
2021/07/08 10:27:27;;;;;;;7.78;2.80;;;22.90;99.90;;;;;;5055133;28;20029;-66
2021/07/08 10:29:54;;;;;;;8.23;3.17;;;22.90;99.90;;;;;;5050601;28;20072;-67
2021/07/08 10:32:20;;;;;;;6.35;3.13;;;22.80;99.90;;;;;;5053998;28;20485;-66
2021/07/08 10:34:49;;;;;;;9.50;3.72;;;22.80;99.90;;;;;;5053962;28;20083;-67
2021/07/08 10:37:29;;;;;;;9.43;3.25;;;22.80;99.90;;;;;;5050872;28;20029;-66
2021/07/08 10:39:57;;;;;;;10.10;3.08;;;22.80;99.90;;;;;;5035133;28;20059;-67
2021/07/08 10:42:49;;;;;;;7.40;3.35;;;22.60;99.90;;;;;;5034274;28;20109;-67
2021/07/08 10:45:34;;;;;;;6.32;3.33;;;22.40;99.90;;;;;;5034974;28;20071;-67
2021/07/08 10:48:13;;;;;;;9.25;4.32;;;22.40;99.90;;;;;;5034576;28;20032;-66
2021/07/08 10:50:45;;;;;;;14.48;5.68;;;22.20;99.90;;;;;;5033559;28;20055;-65
2021/07/08 10:53:15;;;;;;;13.63;5.47;;;21.90;99.90;;;;;;5034076;28;20076;-67
2021/07/08 10:55:44;;;;;;;12.15;5.47;;;21.80;99.90;;;;;;5034485;28;20112;-67
2021/07/08 10:58:44;;;;;;;10.80;4.90;;;21.50;99.90;;;;;;5034690;28;20033;-68
2021/07/08 11:01:22;;;;;;;9.85;5.78;;;21.30;99.90;;;;;;5034294;28;20438;-69
2021/07/08 11:03:52;;;;;;;9.10;5.43;;;21.40;99.90;;;;;;5034691;28;20044;-68
2021/07/08 11:06:31;;;;;;;9.70;5.30;;;21.30;99.90;;;;;;5034292;28;20520;-67
2021/07/08 11:08:57;;;;;;;14.10;6.28;;;21.40;99.90;;;;;;5033507;28;20041;-68
2021/07/08 11:11:23;;;;;;;15.45;7.72;;;21.50;99.90;;;;;;5034338;28;20172;-68
2021/07/08 11:13:55;;;;;;;12.60;9.05;;;21.40;99.90;;;;;;5034125;28;20199;-67
2021/07/08 11:16:43;;;;;;;15.85;9.50;;;21.40;99.90;;;;;;5032883;28;20082;-66
2021/07/08 11:19:40;;;;;;;17.73;8.90;;;21.40;99.90;;;;;;5034306;28;20116;-68
2021/07/08 11:22:17;;;;;;;17.08;9.50;;;21.40;99.90;;;;;;5033344;28;20045;-68
2021/07/08 11:24:50;;;;;;;16.45;8.15;;;21.40;99.90;;;;;;5034066;28;20373;-67
2021/07/08 11:27:32;;;;;;;16.17;8.43;;;21.40;99.90;;;;;;5034004;28;20029;-67
2021/07/08 11:30:04;;;;;;;14.02;8.20;;;21.40;99.90;;;;;;5034296;28;20116;-67
2021/07/08 11:32:37;;;;;;;12.35;7.32;;;21.40;99.90;;;;;;5016915;28;20076;-68
2021/07/08 11:35:28;;;;;;;15.35;8.55;;;21.40;99.90;;;;;;5034093;28;20042;-67
2021/07/08 11:38:03;;;;;;;;;;;21.40;99.90;;;;;;5034729;28;20029;-67
2021/07/08 11:40:38;;;;;;;15.27;9.38;;;21.50;99.90;;;;;;5033717;28;19913;-66
2021/07/08 11:43:32;;;;;;;12.63;8.52;;;21.50;99.90;;;;;;5033881;28;20030;-67
2021/07/08 11:46:14;;;;;;;17.13;9.27;;;21.60;99.90;;;;;;5013472;28;20064;-67
2021/07/08 11:48:44;;;;;;;12.60;8.18;;;21.60;99.90;;;;;;5013766;28;20121;-66
2021/07/08 11:51:20;;;;;;;15.70;9.63;;;21.40;99.90;;;;;;5012351;28;20037;-66
2021/07/08 11:53:48;;;;;;;14.15;8.90;;;21.20;99.90;;;;;;5013649;28;20034;-66
2021/07/08 11:56:21;;;;;;;19.08;9.38;;;21.10;99.90;;;;;;5013308;28;20550;-66
2021/07/08 11:58:48;;;;;;;15.27;8.40;;;20.80;99.90;;;;;;5012334;28;20033;-71
2021/07/08 12:01:19;;;;;;;11.25;6.68;;;20.70;99.90;;;;;;5013327;28;20030;-67
2021/07/08 12:03:54;;;;;;;8.38;6.07;;;20.50;99.90;;;;;;5013463;28;20041;-67
2021/07/08 12:06:30;;;;;;;13.60;7.88;;;20.30;99.90;;;;;;5013011;28;20069;-68
2021/07/08 12:09:01;;;;;;;15.05;9.52;;;20.00;99.90;;;;;;5013445;28;20121;-67
2021/07/08 12:11:38;;;;;;;12.35;6.75;;;19.70;99.90;;;;;;5012958;28;20129;-67
2021/07/08 12:14:12;;;;;;;11.52;7.47;;;19.70;99.90;;;;;;5017400;28;20486;-67
2021/07/08 12:16:42;;;;;;;9.75;6.72;;;19.80;99.90;;;;;;5032589;28;20121;-67
2021/07/08 12:19:29;;;;;;;10.30;6.07;;;19.90;99.90;;;;;;5031778;28;20034;-69
2021/07/08 12:22:05;;;;;;;11.27;5.82;;;20.10;99.90;;;;;;5031700;28;20103;-68
2021/07/08 12:24:35;;;;;;;9.38;5.50;;;20.30;99.90;;;;;;5050224;28;20029;-68
2021/07/08 12:27:04;;;;;;;7.15;4.65;;;20.40;99.90;;;;;;5051213;28;20033;-69
2021/07/08 12:29:36;;;;;;;7.15;4.45;;;20.40;99.90;;;;;;5051048;28;20505;-67
2021/07/08 12:32:06;;;;;;;7.38;4.72;;;20.50;99.90;;;;;;5050531;28;20037;-72
2021/07/08 12:34:42;;;;;;;8.73;4.85;;;20.40;99.90;;;;;;5052650;28;20090;-72
2021/07/08 12:37:19;;;;;;;9.10;5.45;;;20.40;99.90;;;;;;5052629;28;20062;-72
2021/07/08 12:40:08;;;;;;;15.13;9.60;;;20.50;99.90;;;;;;5052560;28;20041;-71
2021/07/08 12:42:41;;;;;;;7.60;5.57;;;20.50;99.90;;;;;;5052094;28;20033;-73
2021/07/08 12:45:15;;;;;;;9.60;5.85;;;20.60;99.90;;;;;;5038252;28;20389;-73
2021/07/08 12:47:45;;;;;;;8.70;5.18;;;20.90;99.90;;;;;;5021164;28;20062;-71
2021/07/08 12:50:16;;;;;;;9.02;6.45;;;21.00;99.90;;;;;;5011653;28;20030;-70
2021/07/08 12:52:43;;;;;;;;;;;21.00;99.90;;;;;;5013122;28;20034;-70
2021/07/08 12:55:42;;;;;;;9.02;5.22;;;21.20;99.90;;;;;;5016990;28;20335;-72
2021/07/08 12:58:21;;;;;;;8.05;5.03;;;21.10;99.90;;;;;;5032212;28;20083;-72